Time;durP1;ratioP1;P1;durP2;ratioP2;P2;SDS_P1;SDS_P2;PMS_P1;PMS_P2;Temp;Humidity;BMP_temperature;BMP_pressure;BME280_temperature;BME280_humidity;BME280_pressure;Samples;Min_cycle;Max_cycle;Signal;HPM_P1;HPM_P2
2023/10/16 00:03:22;;;;;;;3.85;1.20;;;3.80;99.90;;;;;;7298195;32;20251;-55
2023/10/16 00:07:27;;;;;;;1.77;1.05;;;3.70;99.90;;;;;;7301780;32;20707;-56
2023/10/16 00:11:28;;;;;;;4.10;1.05;;;3.80;99.90;;;;;;7301294;32;20264;-55
2023/10/16 00:15:44;;;;;;;2.47;1.10;;;3.70;99.90;;;;;;7298062;32;20599;-55
2023/10/16 00:19:46;;;;;;;2.05;1.10;;;3.60;99.90;;;;;;7302455;32;20177;-55
2023/10/16 00:23:47;;;;;;;4.28;1.00;;;3.70;99.90;;;;;;7299497;32;20194;-55
2023/10/16 00:27:49;;;;;;;4.85;1.10;;;3.70;99.90;;;;;;7297284;32;20218;-54
2023/10/16 00:31:51;;;;;;;3.10;1.50;;;3.60;99.90;;;;;;7293931;32;20845;-55
2023/10/16 00:35:54;;;;;;;3.62;1.25;;;3.60;99.90;;;;;;7302350;32;20639;-55
2023/10/16 00:39:56;;;;;;;3.55;1.10;;;3.60;99.90;;;;;;7295063;32;20212;-55
2023/10/16 00:43:58;;;;;;;2.97;1.05;;;3.60;99.90;;;;;;7301671;32;20234;-56
2023/10/16 00:48:01;;;;;;;1.60;1.00;;;3.60;99.90;;;;;;7297269;32;20176;-55
2023/10/16 00:52:04;;;;;;;2.42;1.30;;;3.60;99.90;;;;;;7300208;32;20095;-56
2023/10/16 00:56:08;;;;;;;2.58;0.90;;;3.50;99.90;;;;;;7297537;32;20203;-56
2023/10/16 01:00:12;;;;;;;2.70;1.30;;;3.50;99.90;;;;;;7300722;32;20121;-55
2023/10/16 01:04:17;;;;;;;3.92;1.52;;;3.50;99.90;;;;;;7298487;32;20870;-55
2023/10/16 01:08:19;;;;;;;1.83;1.17;;;3.40;99.90;;;;;;7293105;32;20222;-54
2023/10/16 01:12:22;;;;;;;4.47;1.80;;;3.40;99.90;;;;;;7295247;32;20284;-55
2023/10/16 01:16:23;;;;;;;3.03;1.30;;;3.40;99.90;;;;;;7298357;32;20122;-57
2023/10/16 01:20:25;;;;;;;2.53;1.30;;;3.40;99.90;;;;;;7303793;32;20179;-54
2023/10/16 01:24:27;;;;;;;5.40;1.50;;;3.40;99.90;;;;;;7302471;32;20127;-56
2023/10/16 01:28:30;;;;;;;3.35;1.45;;;3.40;99.90;;;;;;7304469;32;20111;-55
2023/10/16 01:32:32;;;;;;;3.97;1.67;;;3.30;99.90;;;;;;7302975;32;20107;-55
2023/10/16 01:36:36;;;;;;;4.80;1.45;;;3.40;99.90;;;;;;7305313;32;20100;-56
2023/10/16 01:40:37;;;;;;;2.15;1.37;;;3.30;99.90;;;;;;7305673;32;20202;-55
2023/10/16 01:44:39;;;;;;;3.55;1.40;;;3.30;99.90;;;;;;7303473;32;20214;-57
2023/10/16 01:48:44;;;;;;;2.65;1.50;;;3.20;99.90;;;;;;7306130;32;20328;-56
2023/10/16 01:52:46;;;;;;;3.75;1.60;;;3.30;99.90;;;;;;7303079;32;20242;-55
2023/10/16 01:56:51;;;;;;;3.03;1.50;;;3.30;99.90;;;;;;7302492;32;20554;-56
2023/10/16 02:00:54;;;;;;;4.32;1.73;;;3.30;99.90;;;;;;7305826;32;20108;-55
2023/10/16 02:04:58;;;;;;;5.28;1.90;;;3.20;99.90;;;;;;7302700;32;20246;-56
2023/10/16 02:09:00;;;;;;;1.98;1.50;;;3.20;99.90;;;;;;7304457;32;20151;-55
2023/10/16 02:13:01;;;;;;;2.05;1.45;;;3.20;99.90;;;;;;7294925;32;20179;-55
2023/10/16 02:17:03;;;;;;;2.95;1.50;;;3.20;99.90;;;;;;7305184;32;22206;-55
2023/10/16 02:21:06;;;;;;;2.67;1.58;;;3.10;99.90;;;;;;7299956;32;20186;-56
2023/10/16 02:25:08;;;;;;;3.80;1.70;;;3.20;99.90;;;;;;7302219;32;20603;-56
2023/10/16 02:29:12;;;;;;;7.28;1.80;;;3.10;99.90;;;;;;7298046;32;20202;-55
2023/10/16 02:33:26;;;;;;;4.00;1.67;;;3.00;99.90;;;;;;7302011;32;20138;-56
2023/10/16 02:37:29;;;;;;;2.92;1.45;;;3.10;99.90;;;;;;7304616;32;20149;-55
2023/10/16 02:41:30;;;;;;;2.67;1.60;;;3.00;99.90;;;;;;7301471;32;20241;-56
2023/10/16 02:45:33;;;;;;;4.80;1.65;;;3.10;99.90;;;;;;7302922;32;20295;-55
2023/10/16 02:49:36;;;;;;;3.20;1.75;;;3.10;99.90;;;;;;7301183;32;20107;-56
2023/10/16 02:53:41;;;;;;;4.05;1.70;;;3.10;99.90;;;;;;7300093;32;20109;-56
2023/10/16 02:57:43;;;;;;;3.70;2.10;;;3.00;99.90;;;;;;7295542;32;20298;-56
2023/10/16 03:01:46;;;;;;;3.87;1.92;;;3.10;99.90;;;;;;7299998;32;20218;-55
2023/10/16 03:05:49;;;;;;;3.33;2.15;;;3.00;99.90;;;;;;7303542;32;20100;-55
2023/10/16 03:09:51;;;;;;;4.10;2.28;;;3.00;99.90;;;;;;7301354;32;20681;-54
2023/10/16 03:13:56;;;;;;;6.47;2.53;;;3.00;99.90;;;;;;7303007;32;20227;-55
2023/10/16 03:18:00;;;;;;;5.95;3.33;;;3.00;99.90;;;;;;7300582;32;20157;-54
2023/10/16 03:22:11;;;;;;;7.35;3.00;;;3.00;99.90;;;;;;7299725;32;20190;-56
2023/10/16 03:26:25;;;;;;;5.32;2.95;;;3.10;99.90;;;;;;7295872;32;20150;-55
2023/10/16 03:30:27;;;;;;;7.78;2.50;;;3.10;99.90;;;;;;7299106;32;20187;-55
2023/10/16 03:34:31;;;;;;;4.60;2.65;;;3.00;99.90;;;;;;7298110;32;20541;-55
2023/10/16 03:38:37;;;;;;;3.97;2.78;;;3.00;99.90;;;;;;7301484;32;20704;-56
2023/10/16 03:42:43;;;;;;;9.45;3.22;;;3.00;99.90;;;;;;7294726;32;20207;-55
2023/10/16 03:46:46;;;;;;;4.85;2.67;;;3.00;99.90;;;;;;7299141;32;20149;-55
2023/10/16 03:50:48;;;;;;;4.40;2.92;;;3.00;99.90;;;;;;7301615;32;20566;-55
2023/10/16 03:54:50;;;;;;;4.07;2.78;;;3.00;99.90;;;;;;7293210;32;20376;-55
2023/10/16 03:58:53;;;;;;;4.30;2.70;;;2.90;99.90;;;;;;7300891;32;20480;-55
2023/10/16 04:02:59;;;;;;;4.32;2.92;;;2.90;99.90;;;;;;7296287;32;20128;-57
2023/10/16 04:07:03;;;;;;;4.53;3.00;;;2.90;99.90;;;;;;7299560;32;20189;-57
2023/10/16 04:11:07;;;;;;;4.05;2.95;;;2.90;99.90;;;;;;7297294;32;20100;-56
2023/10/16 04:15:23;;;;;;;5.47;2.85;;;2.90;99.90;;;;;;7299151;32;20111;-55
2023/10/16 04:23:52;;;;;;;6.47;3.03;;;2.90;99.90;;;;;;7299668;32;20034;-54
2023/10/16 04:28:09;;;;;;;6.25;3.97;;;2.90;99.90;;;;;;7296576;32;20615;-55
2023/10/16 04:32:37;;;;;;;7.53;4.10;;;2.80;99.90;;;;;;7298433;32;20124;-54
2023/10/16 04:36:54;;;;;;;6.10;4.30;;;2.90;99.90;;;;;;7299088;32;20486;-55
2023/10/16 04:49:28;;;;;;;5.93;3.97;;;3.00;99.90;;;;;;7296756;32;20638;-55
2023/10/16 04:53:39;;;;;;;5.97;3.87;;;3.00;99.90;;;;;;7288794;32;20584;-55
2023/10/16 04:58:16;;;;;;;6.35;4.03;;;2.90;99.90;;;;;;7304412;32;20210;-55
2023/10/16 05:02:19;;;;;;;6.15;4.07;;;2.90;99.90;;;;;;7300343;32;20126;-54
2023/10/16 06:15:31;;;;;;;8.55;4.65;;;3.00;99.90;;;;;;7293378;32;20125;-57
2023/10/16 06:19:33;;;;;;;8.95;5.37;;;3.10;99.90;;;;;;7300036;32;20153;-56
2023/10/16 06:23:42;;;;;;;16.08;9.95;;;3.20;99.90;;;;;;7292569;32;20116;-56
2023/10/16 06:27:43;;;;;;;11.05;6.30;;;3.20;99.90;;;;;;7297394;32;20618;-56
2023/10/16 06:31:53;;;;;;;10.45;6.65;;;3.40;99.90;;;;;;7297895;32;20202;-57
2023/10/16 06:35:55;;;;;;;10.45;6.40;;;3.60;99.90;;;;;;7290844;32;20258;-57
2023/10/16 06:39:58;;;;;;;12.13;7.22;;;3.90;99.90;;;;;;7296785;32;20163;-55
2023/10/16 06:44:01;;;;;;;14.70;9.00;;;4.00;99.90;;;;;;7294521;32;20130;-55
2023/10/16 06:48:08;;;;;;;11.80;8.48;;;4.20;99.90;;;;;;7294395;32;20202;-55
2023/10/16 06:52:12;;;;;;;12.25;9.02;;;4.40;99.90;;;;;;7292926;32;20104;-56
2023/10/16 06:56:18;;;;;;;13.82;8.93;;;4.70;99.90;;;;;;7293114;32;20249;-57
2023/10/16 07:00:27;;;;;;;14.38;8.57;;;4.80;99.90;;;;;;7295904;32;20183;-55
2023/10/16 07:04:30;;;;;;;15.73;8.82;;;5.00;99.90;;;;;;7299435;32;20560;-55
2023/10/16 07:08:33;;;;;;;13.48;9.10;;;5.10;99.90;;;;;;7292010;32;20278;-55
2023/10/16 07:12:53;;;;;;;14.70;9.13;;;5.30;99.90;;;;;;7292245;32;20108;-57
2023/10/16 07:16:56;;;;;;;15.02;8.63;;;5.40;99.90;;;;;;7294687;32;20252;-56
2023/10/16 07:21:41;;;;;;;12.65;8.40;;;5.50;99.90;;;;;;7293102;32;20234;-56
2023/10/16 07:25:23;;;;;;;14.32;9.10;;;5.50;99.90;;;;;;7289287;32;20256;-57
2023/10/16 07:29:29;;;;;;;12.95;8.90;;;5.70;99.90;;;;;;7293486;32;20202;-56
2023/10/16 07:33:32;;;;;;;14.18;8.85;;;5.80;99.90;;;;;;7294258;32;20109;-57
2023/10/16 07:37:34;;;;;;;14.45;8.90;;;5.90;99.90;;;;;;7292047;32;20109;-58
2023/10/16 07:41:37;;;;;;;10.02;7.70;;;6.00;99.90;;;;;;7290049;32;20357;-58
2023/10/16 07:45:44;;;;;;;13.80;8.93;;;6.10;99.90;;;;;;7293550;32;20112;-55
2023/10/16 07:49:46;;;;;;;12.15;9.00;;;6.30;99.90;;;;;;7293302;32;20108;-56
2023/10/16 07:53:48;;;;;;;12.40;7.80;;;6.40;99.90;;;;;;7292732;32;20128;-57
2023/10/16 07:57:51;;;;;;;13.82;9.38;;;6.50;99.90;;;;;;7292373;32;20183;-55
2023/10/16 08:01:54;;;;;;;13.90;8.98;;;6.60;99.90;;;;;;7291958;32;20864;-55
2023/10/16 08:06:02;;;;;;;13.98;8.35;;;6.70;99.90;;;;;;7296102;32;20915;-56
2023/10/16 08:14:30;;;;;;;14.30;8.60;;;6.70;99.90;;;;;;7299041;32;20157;-56
2023/10/16 08:18:32;;;;;;;12.07;8.63;;;6.80;99.90;;;;;;7296440;32;20230;-56
2023/10/16 08:22:34;;;;;;;17.12;9.63;;;6.90;99.90;;;;;;7297006;32;20167;-56
2023/10/16 08:26:45;;;;;;;12.75;8.63;;;6.90;99.90;;;;;;7298168;32;20165;-56
2023/10/16 08:34:50;;;;;;;15.68;9.35;;;7.20;99.90;;;;;;7295777;32;20096;-52
2023/10/16 08:38:52;;;;;;;16.85;9.50;;;7.30;99.90;;;;;;7290567;32;20120;-56
2023/10/16 08:43:00;;;;;;;15.07;10.02;;;7.50;99.90;;;;;;7301805;32;20241;-56
2023/10/16 08:51:08;;;;;;;19.25;9.52;;;7.60;99.90;;;;;;7298852;32;20202;-56
2023/10/16 08:55:16;;;;;;;17.87;9.40;;;7.60;99.90;;;;;;7300491;32;20191;-55
2023/10/16 08:59:18;;;;;;;16.73;9.80;;;7.90;99.90;;;;;;7298965;32;20231;-55
2023/10/16 09:03:22;;;;;;;15.35;9.45;;;8.30;99.90;;;;;;7298425;32;20301;-56
2023/10/16 09:07:25;;;;;;;14.45;9.50;;;8.50;99.90;;;;;;7294465;32;20215;-56
2023/10/16 09:11:27;;;;;;;17.00;9.00;;;8.70;99.90;;;;;;7293034;32;20113;-55
2023/10/16 09:15:29;;;;;;;16.60;9.25;;;8.80;99.90;;;;;;7301870;32;20105;-55
2023/10/16 09:19:34;;;;;;;18.58;8.88;;;8.90;99.90;;;;;;7292076;32;20213;-57
2023/10/16 09:23:36;;;;;;;15.85;9.32;;;8.90;99.90;;;;;;7293626;32;20221;-56
2023/10/16 09:27:49;;;;;;;16.83;9.52;;;9.20;99.90;;;;;;7296776;32;20120;-56
2023/10/16 09:31:52;;;;;;;15.80;9.40;;;9.30;99.90;;;;;;7295719;32;20173;-57
2023/10/16 09:36:00;;;;;;;15.90;9.68;;;9.20;99.90;;;;;;7291329;32;20112;-55
2023/10/16 09:40:18;;;;;;;14.85;9.63;;;9.40;99.90;;;;;;7302367;32;20126;-56
2023/10/16 09:44:38;;;;;;;14.30;9.30;;;9.70;99.90;;;;;;7299340;32;20431;-55
2023/10/16 09:48:42;;;;;;;11.70;8.02;;;10.00;99.90;;;;;;7303374;32;20127;-55
2023/10/16 09:52:51;;;;;;;13.38;8.30;;;10.70;99.90;;;;;;7294717;32;20122;-55
2023/10/16 09:57:00;;;;;;;12.82;7.78;;;11.10;99.90;;;;;;7306217;32;20130;-56
2023/10/16 10:01:16;;;;;;;11.98;8.20;;;11.50;99.90;;;;;;7295277;32;20126;-56
2023/10/16 10:05:22;;;;;;;15.38;8.23;;;10.90;99.90;;;;;;7298300;32;20126;-56
2023/10/16 10:09:41;;;;;;;13.35;8.55;;;10.70;99.90;;;;;;7301798;32;20104;-57
2023/10/16 10:22:37;;;;;;;14.52;8.48;;;10.50;99.90;;;;;;7300417;32;20513;-57
2023/10/16 10:26:50;;;;;;;15.60;8.98;;;10.40;99.90;;;;;;7299102;32;20143;-58
2023/10/16 10:30:56;;;;;;;15.93;10.00;;;10.20;99.90;;;;;;7296841;32;20200;-57
2023/10/16 10:35:28;;;;;;;15.60;10.13;;;10.10;99.90;;;;;;7300939;32;20141;-55
2023/10/16 10:39:38;;;;;;;14.98;8.98;;;10.30;99.90;;;;;;7305171;32;20320;-58
2023/10/16 10:43:49;;;;;;;12.93;8.38;;;10.30;99.90;;;;;;7299836;32;20118;-57
2023/10/16 10:47:55;;;;;;;17.87;9.18;;;10.40;99.90;;;;;;7291839;32;20158;-57
2023/10/16 10:52:00;;;;;;;12.77;7.57;;;10.40;99.90;;;;;;7295421;32;20891;-57
2023/10/16 10:56:07;;;;;;;15.55;7.78;;;10.50;99.90;;;;;;7284874;32;20292;-57
2023/10/16 11:04:16;;;;;;;12.85;7.78;;;10.50;99.90;;;;;;7303408;32;20253;-55
2023/10/16 11:08:22;;;;;;;12.48;7.60;;;10.70;99.90;;;;;;7293207;32;20111;-55
2023/10/16 11:12:24;;;;;;;13.65;6.55;;;10.70;99.90;;;;;;7300819;32;20245;-55
2023/10/16 11:16:28;;;;;;;8.68;5.03;;;10.90;99.90;;;;;;7295035;32;20642;-56
2023/10/16 11:20:29;;;;;;;6.85;4.65;;;10.80;99.90;;;;;;7302341;32;20104;-54
2023/10/16 11:24:31;;;;;;;8.15;4.20;;;10.90;99.90;;;;;;7303857;32;20192;-56
2023/10/16 11:28:35;;;;;;;9.18;4.18;;;10.90;99.90;;;;;;7301957;32;20261;-55
2023/10/16 11:32:41;;;;;;;9.82;4.75;;;11.00;99.90;;;;;;7300780;32;20200;-58
2023/10/16 11:36:44;;;;;;;11.55;4.75;;;11.10;99.90;;;;;;7299554;32;20704;-56
2023/10/16 11:40:50;;;;;;;8.35;4.15;;;11.10;99.90;;;;;;7294858;32;20559;-55
2023/10/16 11:44:53;;;;;;;8.65;4.80;;;11.20;99.90;;;;;;7290866;32;20796;-55
2023/10/16 11:53:28;;;;;;;7.12;4.45;;;11.20;99.90;;;;;;7297032;32;20112;-55
2023/10/16 11:57:31;;;;;;;;;;;11.40;99.90;;;;;;7303437;32;20134;-55
2023/10/16 12:01:33;;;;;;;9.73;4.25;;;11.60;99.90;;;;;;7300679;32;20015;-56
2023/10/16 12:05:55;;;;;;;7.43;4.47;;;11.60;99.90;;;;;;7300743;32;20096;-56
2023/10/16 12:10:01;;;;;;;8.77;4.30;;;11.50;99.90;;;;;;7295139;32;20294;-55
2023/10/16 12:14:07;;;;;;;5.97;3.67;;;11.80;99.90;;;;;;7301784;32;20577;-56
2023/10/16 12:18:09;;;;;;;6.68;3.42;;;11.70;99.90;;;;;;7296432;32;20204;-55
2023/10/16 12:22:15;;;;;;;5.57;3.00;;;11.70;99.90;;;;;;7299668;32;20157;-55
2023/10/16 12:26:17;;;;;;;6.78;2.70;;;11.80;99.90;;;;;;7298660;32;20573;-57
2023/10/16 12:30:19;;;;;;;4.55;2.80;;;11.90;99.90;;;;;;7296376;32;20119;-57
2023/10/16 12:34:22;;;;;;;5.00;3.15;;;12.00;99.90;;;;;;7291842;32;20116;-55
2023/10/16 12:38:24;;;;;;;8.05;3.20;;;12.00;99.90;;;;;;7290935;32;20727;-57
2023/10/16 12:42:27;;;;;;;6.57;3.08;;;12.10;99.90;;;;;;7295483;32;20198;-57
2023/10/16 12:46:31;;;;;;;9.60;3.25;;;12.00;99.90;;;;;;7295617;32;20173;-56
2023/10/16 12:50:32;;;;;;;7.05;2.95;;;12.00;99.90;;;;;;7294383;32;20512;-56
2023/10/16 12:54:34;;;;;;;8.90;4.40;;;12.20;99.90;;;;;;7296975;32;20632;-56
2023/10/16 12:58:36;;;;;;;7.85;3.70;;;12.30;99.90;;;;;;7293629;32;20104;-56
2023/10/16 13:02:38;;;;;;;5.82;3.25;;;12.30;99.90;;;;;;7291401;32;20099;-55
2023/10/16 13:06:40;;;;;;;5.07;3.05;;;12.30;99.90;;;;;;7294341;32;20119;-56
2023/10/16 13:10:44;;;;;;;13.48;3.37;;;12.30;99.90;;;;;;7295096;32;20116;-55
2023/10/16 13:14:49;;;;;;;7.15;2.62;;;12.30;99.90;;;;;;7294334;32;20224;-56
2023/10/16 13:18:58;;;;;;;7.07;2.72;;;12.30;99.90;;;;;;7298346;32;20206;-56
2023/10/16 13:23:05;;;;;;;6.30;2.33;;;12.20;99.90;;;;;;7304077;32;20154;-62
2023/10/16 13:27:07;;;;;;;6.72;2.72;;;12.40;99.90;;;;;;7304644;32;20236;-62
2023/10/16 13:31:09;;;;;;;5.70;2.10;;;12.60;99.90;;;;;;7306161;32;20163;-55
2023/10/16 13:35:15;;;;;;;7.30;2.47;;;12.50;99.90;;;;;;7302029;32;20193;-55
2023/10/16 13:39:19;;;;;;;5.62;2.58;;;12.60;99.90;;;;;;7304601;32;20182;-56
2023/10/16 13:43:22;;;;;;;4.68;1.75;;;12.50;99.90;;;;;;7301124;32;20746;-55
2023/10/16 13:47:24;;;;;;;5.25;1.62;;;12.60;99.90;;;;;;7301434;32;20170;-56
2023/10/16 13:51:26;;;;;;;3.92;1.60;;;12.50;99.90;;;;;;7299794;32;20250;-55
2023/10/16 13:55:30;;;;;;;4.60;1.48;;;12.10;99.90;;;;;;7290266;32;20203;-55
2023/10/16 13:59:32;;;;;;;3.58;1.50;;;12.10;99.90;;;;;;7301298;32;20470;-55
2023/10/16 14:03:35;;;;;;;4.80;1.92;;;12.00;99.90;;;;;;7295923;32;20206;-55
2023/10/16 14:07:36;;;;;;;3.15;1.35;;;12.40;99.90;;;;;;7292441;32;20172;-55
2023/10/16 14:11:47;;;;;;;5.78;1.50;;;12.20;99.90;;;;;;7300769;32;20183;-56
2023/10/16 14:15:50;;;;;;;4.07;1.62;;;12.10;99.90;;;;;;7296517;32;20157;-55
2023/10/16 14:19:52;;;;;;;6.30;2.83;;;12.20;99.90;;;;;;7301819;32;20118;-55
2023/10/16 14:23:54;;;;;;;3.72;1.52;;;12.30;99.90;;;;;;7297420;32;20381;-56
2023/10/16 14:27:56;;;;;;;5.25;1.70;;;12.40;99.90;;;;;;7296193;32;20191;-55
2023/10/16 14:31:58;;;;;;;2.83;1.62;;;12.20;99.90;;;;;;7298409;32;20225;-56
2023/10/16 14:36:04;;;;;;;3.95;1.50;;;12.30;99.90;;;;;;7294258;32;20108;-56
2023/10/16 14:40:06;;;;;;;5.55;2.22;;;12.30;99.90;;;;;;7302002;32;20534;-56
2023/10/16 14:44:12;;;;;;;4.15;1.73;;;12.10;99.90;;;;;;7302225;32;20581;-56
2023/10/16 14:48:26;;;;;;;;;;;12.20;99.90;;;;;;7300740;32;20189;-56
2023/10/16 14:52:27;;;;;;;5.20;1.70;;;12.20;99.90;;;;;;7287542;32;20142;-55
2023/10/16 14:56:29;;;;;;;4.53;1.80;;;12.10;99.90;;;;;;7298675;32;20666;-55
2023/10/16 15:00:41;;;;;;;3.78;1.70;;;12.00;99.90;;;;;;7301911;32;20103;-56
2023/10/16 15:04:43;;;;;;;4.32;1.80;;;11.80;99.90;;;;;;7300577;32;20185;-56
2023/10/16 15:08:48;;;;;;;3.35;1.70;;;11.60;99.90;;;;;;7296432;32;20218;-56
2023/10/16 15:12:50;;;;;;;4.07;1.98;;;11.70;99.90;;;;;;7300883;32;20165;-55
2023/10/16 15:16:54;;;;;;;5.03;2.17;;;11.80;99.90;;;;;;7299272;32;20238;-55
2023/10/16 15:20:55;;;;;;;4.78;1.80;;;11.70;99.90;;;;;;7298020;32;20241;-56
2023/10/16 15:24:57;;;;;;;4.50;1.95;;;11.70;99.90;;;;;;7300178;32;20242;-56
2023/10/16 15:29:00;;;;;;;5.15;2.17;;;11.60;99.90;;;;;;7300200;32;20107;-57
2023/10/16 15:33:03;;;;;;;8.00;2.00;;;11.60;99.90;;;;;;7300702;32;20104;-57
2023/10/16 15:37:05;;;;;;;7.12;2.28;;;11.60;99.90;;;;;;7293405;32;20203;-55
2023/10/16 15:41:12;;;;;;;6.18;2.22;;;11.50;99.90;;;;;;7294622;32;20544;-56
2023/10/16 15:45:14;;;;;;;5.78;2.67;;;11.40;99.90;;;;;;7301369;32;20489;-56
2023/10/16 15:49:19;;;;;;;4.45;2.60;;;11.30;99.90;;;;;;7302026;32;20231;-55
2023/10/16 15:53:21;;;;;;;5.68;2.47;;;11.30;99.90;;;;;;7298295;32;20155;-55
2023/10/16 15:57:24;;;;;;;6.45;2.70;;;11.20;99.90;;;;;;7299969;32;20549;-55
2023/10/16 16:01:26;;;;;;;6.03;2.70;;;11.20;99.90;;;;;;7297871;32;20576;-56
2023/10/16 16:05:32;;;;;;;7.03;2.45;;;11.10;99.90;;;;;;7296768;32;20274;-56
2023/10/16 16:09:53;;;;;;;4.85;2.50;;;11.00;99.90;;;;;;7300600;32;20095;-56
2023/10/16 16:13:56;;;;;;;4.18;2.22;;;10.90;99.90;;;;;;7296513;32;20781;-57
2023/10/16 16:18:00;;;;;;;4.97;2.85;;;10.70;99.90;;;;;;7298807;32;20208;-55
2023/10/16 16:22:02;;;;;;;6.03;3.15;;;10.60;99.90;;;;;;7300372;32;20117;-57
2023/10/16 16:26:04;;;;;;;4.50;2.50;;;10.50;99.90;;;;;;7293414;32;20135;-56
2023/10/16 16:30:07;;;;;;;5.78;2.72;;;10.30;99.90;;;;;;7289092;32;20242;-57
2023/10/16 16:34:09;;;;;;;5.57;2.53;;;10.20;99.90;;;;;;7295709;32;20159;-56
2023/10/16 16:38:11;;;;;;;9.55;2.87;;;10.10;99.90;;;;;;7296818;32;20202;-56
2023/10/16 16:42:13;;;;;;;6.45;2.50;;;9.90;99.90;;;;;;7302828;32;20124;-57
2023/10/16 16:46:15;;;;;;;5.90;2.33;;;9.80;99.90;;;;;;7300939;32;20126;-57
2023/10/16 16:50:17;;;;;;;5.37;2.58;;;9.70;99.90;;;;;;7304308;32;20103;-55
2023/10/16 16:54:20;;;;;;;8.32;2.72;;;9.60;99.90;;;;;;7295133;32;20552;-56
2023/10/16 16:58:22;;;;;;;5.05;2.70;;;9.40;99.90;;;;;;7298225;32;20128;-55
2023/10/16 17:02:23;;;;;;;4.82;2.58;;;9.30;99.90;;;;;;7302113;32;20123;-57
2023/10/16 17:06:25;;;;;;;4.43;2.67;;;9.20;99.90;;;;;;7302404;32;20573;-57
2023/10/16 17:10:27;;;;;;;6.15;3.28;;;9.10;99.90;;;;;;7302726;32;20187;-55
2023/10/16 17:14:30;;;;;;;6.50;3.03;;;9.00;99.90;;;;;;7299262;32;20501;-55
2023/10/16 17:18:31;;;;;;;7.85;3.92;;;8.90;99.90;;;;;;7299450;32;20112;-55
2023/10/16 17:22:33;;;;;;;6.10;4.10;;;8.70;99.90;;;;;;7298204;32;20097;-56
2023/10/16 17:26:55;;;;;;;9.98;4.68;;;8.70;99.90;;;;;;7298645;32;20126;-56
2023/10/16 17:30:57;;;;;;;7.18;3.72;;;8.60;99.90;;;;;;7295732;32;20095;-57
2023/10/16 17:34:59;;;;;;;8.05;4.40;;;8.50;99.90;;;;;;7300953;32;20126;-56
2023/10/16 17:39:06;;;;;;;9.20;4.18;;;8.40;99.90;;;;;;7298153;32;20854;-55
2023/10/16 17:43:09;;;;;;;8.00;3.80;;;8.30;99.90;;;;;;7298795;32;20405;-55
2023/10/16 17:47:11;;;;;;;7.50;3.65;;;8.20;99.90;;;;;;7299868;32;20508;-57
2023/10/16 17:51:12;;;;;;;6.45;3.85;;;8.10;99.90;;;;;;7297053;32;20593;-56
2023/10/16 17:55:14;;;;;;;8.25;3.35;;;8.00;99.90;;;;;;7298139;32;20226;-55
2023/10/16 17:59:16;;;;;;;7.28;2.95;;;7.90;99.90;;;;;;7298801;32;20230;-56
2023/10/16 18:03:18;;;;;;;5.57;3.08;;;7.80;99.90;;;;;;7299908;32;20100;-56
2023/10/16 18:07:19;;;;;;;8.45;3.17;;;7.80;99.90;;;;;;7297232;32;20134;-55
2023/10/16 18:11:21;;;;;;;6.90;3.78;;;7.70;99.90;;;;;;7299497;32;20196;-55
2023/10/16 18:15:23;;;;;;;7.97;5.43;;;7.60;99.90;;;;;;7297335;32;20688;-55
2023/10/16 18:19:26;;;;;;;10.00;4.85;;;7.60;99.90;;;;;;7296853;32;20103;-55
2023/10/16 18:23:29;;;;;;;5.55;3.30;;;7.50;99.90;;;;;;7302555;32;20649;-55
2023/10/16 18:27:32;;;;;;;6.28;3.62;;;7.50;99.90;;;;;;7298285;32;20469;-56
2023/10/16 18:31:36;;;;;;;5.65;3.58;;;7.40;99.90;;;;;;7297508;32;20732;-63
2023/10/16 18:35:38;;;;;;;10.23;4.00;;;7.30;99.90;;;;;;7291721;32;20221;-56
2023/10/16 18:39:40;;;;;;;6.32;3.90;;;7.30;99.90;;;;;;7289802;32;20276;-56
2023/10/16 18:43:42;;;;;;;6.20;3.83;;;7.30;99.90;;;;;;7294599;32;20127;-57
2023/10/16 18:47:44;;;;;;;7.35;4.03;;;7.20;99.90;;;;;;7293677;32;21585;-56
2023/10/16 18:51:46;;;;;;;4.82;3.55;;;7.20;99.90;;;;;;7295113;32;20132;-56
2023/10/16 18:55:50;;;;;;;5.55;3.90;;;7.20;99.90;;;;;;7297069;32;20222;-56
2023/10/16 18:59:52;;;;;;;7.37;3.60;;;7.10;99.90;;;;;;7291757;32;20629;-57
2023/10/16 19:03:54;;;;;;;5.03;3.87;;;7.10;99.90;;;;;;7297367;32;20124;-56
2023/10/16 19:07:56;;;;;;;6.55;3.95;;;7.00;99.90;;;;;;7293445;32;20157;-56
2023/10/16 19:11:59;;;;;;;6.18;3.95;;;7.00;99.90;;;;;;7301662;32;20261;-56
2023/10/16 19:16:01;;;;;;;5.70;4.00;;;6.90;99.90;;;;;;7294523;32;20124;-56
2023/10/16 19:20:07;;;;;;;6.37;3.92;;;6.90;99.90;;;;;;7297145;32;20122;-57
2023/10/16 19:24:09;;;;;;;7.60;4.20;;;6.90;99.90;;;;;;7299374;32;20202;-56
2023/10/16 19:28:12;;;;;;;6.32;3.65;;;6.90;99.90;;;;;;7299265;32;20183;-56
2023/10/16 19:32:14;;;;;;;9.90;4.15;;;6.90;99.90;;;;;;7298092;32;20118;-57
2023/10/16 19:36:20;;;;;;;8.32;4.40;;;6.90;99.90;;;;;;7299214;32;20499;-56
2023/10/16 19:40:22;;;;;;;11.10;5.35;;;6.90;99.90;;;;;;7295305;32;20173;-57
2023/10/16 19:44:25;;;;;;;5.97;4.57;;;6.90;99.90;;;;;;7300563;32;20112;-57
2023/10/16 19:48:27;;;;;;;9.90;4.93;;;6.90;99.90;;;;;;7294842;32;20246;-55
2023/10/16 19:52:29;;;;;;;7.22;4.80;;;6.90;99.90;;;;;;7297469;32;20316;-55
2023/10/16 19:56:31;;;;;;;9.95;5.97;;;6.90;99.90;;;;;;7294532;32;20183;-56
2023/10/16 20:00:39;;;;;;;9.10;6.00;;;6.90;99.90;;;;;;7292595;32;20236;-56
2023/10/16 20:04:41;;;;;;;14.43;6.80;;;7.00;99.90;;;;;;7294497;32;20127;-56
2023/10/16 20:08:43;;;;;;;11.05;6.68;;;6.90;99.90;;;;;;7293216;32;20228;-56
2023/10/16 20:12:47;;;;;;;9.40;6.10;;;6.90;99.90;;;;;;7297536;32;20911;-58
2023/10/16 20:16:49;;;;;;;11.82;7.00;;;6.90;99.90;;;;;;7292769;32;20290;-56
2023/10/16 20:21:05;;;;;;;11.23;6.93;;;6.90;99.90;;;;;;7296394;32;20100;-56
2023/10/16 20:25:11;;;;;;;9.50;7.25;;;6.80;99.90;;;;;;7293419;32;20529;-56
2023/10/16 20:29:14;;;;;;;9.82;6.55;;;6.80;99.90;;;;;;7289500;32;20188;-56
2023/10/16 20:33:16;;;;;;;9.05;5.93;;;6.70;99.90;;;;;;7295807;32;20136;-56
2023/10/16 20:37:21;;;;;;;8.93;5.75;;;6.60;99.90;;;;;;7297291;32;20249;-56
2023/10/16 20:41:24;;;;;;;11.55;5.40;;;6.60;99.90;;;;;;7292735;32;20092;-56
2023/10/16 20:45:26;;;;;;;8.95;5.15;;;6.50;99.90;;;;;;7294348;32;20203;-56
2023/10/16 20:49:27;;;;;;;8.38;5.25;;;6.40;99.90;;;;;;7296705;32;20122;-56
2023/10/16 20:53:29;;;;;;;7.68;4.97;;;6.40;99.90;;;;;;7293544;32;20320;-56
2023/10/16 20:57:31;;;;;;;8.88;5.28;;;6.30;99.90;;;;;;7295272;32;20175;-56
2023/10/16 21:01:32;;;;;;;6.20;4.65;;;6.20;99.90;;;;;;7295874;32;20191;-56
2023/10/16 21:05:35;;;;;;;7.65;4.75;;;6.20;99.90;;;;;;7298384;32;20853;-57
2023/10/16 21:09:37;;;;;;;7.60;5.43;;;6.10;99.90;;;;;;7292585;32;20103;-56
2023/10/16 21:13:39;;;;;;;8.02;5.75;;;6.00;99.90;;;;;;7290357;32;20226;-56
2023/10/16 21:17:41;;;;;;;8.68;5.90;;;6.00;99.90;;;;;;7289790;32;20134;-55
2023/10/16 21:21:43;;;;;;;9.65;6.32;;;6.00;99.90;;;;;;7290631;32;20507;-55
2023/10/16 21:25:45;;;;;;;10.55;7.15;;;6.00;99.90;;;;;;7296965;32;20202;-55
2023/10/16 21:29:47;;;;;;;13.82;7.12;;;6.10;99.90;;;;;;7298092;32;20225;-56
2023/10/16 21:33:48;;;;;;;9.55;7.22;;;6.20;99.90;;;;;;7302521;32;20136;-55
2023/10/16 21:37:50;;;;;;;15.05;7.32;;;6.20;99.90;;;;;;7303813;32;20116;-56
2023/10/16 21:41:52;;;;;;;12.37;8.30;;;6.20;99.90;;;;;;7299979;32;20514;-55
2023/10/16 21:45:54;;;;;;;14.45;7.95;;;6.30;99.90;;;;;;7299941;32;20103;-55
2023/10/16 21:49:57;;;;;;;11.55;7.30;;;6.30;99.90;;;;;;7303303;32;20157;-55
2023/10/16 21:53:59;;;;;;;11.02;7.22;;;6.30;99.90;;;;;;7301670;32;20280;-55
2023/10/16 21:58:00;;;;;;;8.95;6.45;;;6.20;99.90;;;;;;7303894;32;20153;-56
2023/10/16 22:02:03;;;;;;;10.48;5.82;;;6.20;99.90;;;;;;7299374;32;20107;-56
2023/10/16 22:06:05;;;;;;;10.35;6.32;;;6.10;99.90;;;;;;7299300;32;20228;-56
2023/10/16 22:10:09;;;;;;;9.55;6.50;;;6.10;99.90;;;;;;7299348;32;20502;-55
2023/10/16 22:14:18;;;;;;;9.35;6.45;;;6.10;99.90;;;;;;7303812;32;20191;-55
2023/10/16 22:18:20;;;;;;;8.40;5.95;;;6.20;99.90;;;;;;7303022;32;20206;-55
2023/10/16 22:22:21;;;;;;;9.55;6.20;;;6.20;99.90;;;;;;7303711;32;20576;-56
2023/10/16 22:26:25;;;;;;;9.40;6.35;;;6.10;99.90;;;;;;7302222;32;20484;-57
2023/10/16 22:30:27;;;;;;;10.95;6.50;;;6.10;99.90;;;;;;7302620;32;20190;-55
2023/10/16 22:34:28;;;;;;;10.55;6.05;;;6.00;99.90;;;;;;7301838;32;20134;-55
2023/10/16 22:38:31;;;;;;;11.30;7.07;;;6.00;99.90;;;;;;7302736;32;20183;-55
2023/10/16 22:42:32;;;;;;;9.23;6.97;;;6.00;99.90;;;;;;7301812;32;20100;-55
2023/10/16 22:46:34;;;;;;;11.43;7.05;;;6.00;99.90;;;;;;7299763;32;20176;-56
2023/10/16 22:50:36;;;;;;;10.77;6.47;;;6.00;99.90;;;;;;7301516;32;20104;-57
2023/10/16 22:54:38;;;;;;;10.40;6.65;;;6.00;99.90;;;;;;7293277;32;20126;-56
2023/10/16 22:58:43;;;;;;;10.43;6.15;;;6.00;99.90;;;;;;7300226;32;20440;-56
2023/10/16 23:02:45;;;;;;;9.15;6.40;;;6.00;99.90;;;;;;7296648;32;20856;-57
2023/10/16 23:06:49;;;;;;;9.77;6.95;;;6.00;99.90;;;;;;7299114;32;20148;-55
2023/10/16 23:10:52;;;;;;;13.23;7.30;;;6.00;99.90;;;;;;7300619;32;20122;-55